ARG2551 SKRG-MROC
Flight info
| Callsign | ARG2551 |
|---|---|
| Flight time | N/A |
| Altitude | 36000 |
| Route | TBG DCT ISEBA CUARE4I |
| Aircraft | B737/M-SDE2E3FGHIRWXY/LB1 |
Departure
| Time | 2026-04-28 01:56 |
|---|---|
| Airport | Jose Maria Córdova International Airport (SKRG) |
Arrival
| Time | N/A |
|---|---|
| Airport | Juan Santamaría International Airport (MROC) |
| Time | Latitude | Longitude | Altitude | Speed | Heading |
|---|---|---|---|---|---|
| 2026-04-28 01:19 | 6.17066 | -75.42700 | 7016 ft | 0 kts | 292° |
| 2026-04-28 01:45 | 6.17064 | -75.42696 | 7016 ft | 4 kts | 292° |
| 2026-04-28 01:46 | 6.17039 | -75.42635 | 7020 ft | 6 kts | 292° |
| 2026-04-28 01:46 | 6.17035 | -75.42625 | 7015 ft | 0 kts | 292° |
| 2026-04-28 01:47 | 6.17039 | -75.42631 | 7015 ft | 0 kts | 310° |
| 2026-04-28 01:48 | 6.17040 | -75.42631 | 7015 ft | 0 kts | 317° |
| 2026-04-28 01:48 | 6.17042 | -75.42630 | 7015 ft | 0 kts | 347° |
| 2026-04-28 01:48 | 6.17045 | -75.42625 | 7016 ft | 1 kts | 49° |
| 2026-04-28 01:48 | 6.17042 | -75.42610 | 7019 ft | 4 kts | 108° |
| 2026-04-28 01:49 | 6.17013 | -75.42578 | 7019 ft | 9 kts | 146° |
| 2026-04-28 01:49 | 6.16946 | -75.42536 | 7015 ft | 14 kts | 148° |
| 2026-04-28 01:49 | 6.16840 | -75.42497 | 7014 ft | 19 kts | 169° |
| 2026-04-28 01:49 | 6.16693 | -75.42484 | 7009 ft | 24 kts | 179° |
| 2026-04-28 01:50 | 6.16516 | -75.42481 | 7006 ft | 27 kts | 179° |
| 2026-04-28 01:50 | 6.16333 | -75.42479 | 7002 ft | 25 kts | 179° |
| 2026-04-28 01:50 | 6.16162 | -75.42478 | 6999 ft | 24 kts | 180° |
| 2026-04-28 01:50 | 6.16001 | -75.42478 | 6996 ft | 23 kts | 180° |
| 2026-04-28 01:51 | 6.15846 | -75.42477 | 6992 ft | 22 kts | 180° |
| 2026-04-28 01:51 | 6.15695 | -75.42477 | 6991 ft | 21 kts | 180° |
| 2026-04-28 01:51 | 6.15549 | -75.42477 | 6986 ft | 21 kts | 180° |
| 2026-04-28 01:51 | 6.15406 | -75.42477 | 6986 ft | 20 kts | 180° |
| 2026-04-28 01:52 | 6.15268 | -75.42476 | 6983 ft | 19 kts | 179° |
| 2026-04-28 01:52 | 6.15146 | -75.42475 | 6979 ft | 0 kts | 179° |
| 2026-04-28 01:52 | 6.15140 | -75.42475 | 6981 ft | 3 kts | 179° |
| 2026-04-28 01:53 | 6.15104 | -75.42475 | 6980 ft | 8 kts | 179° |
| 2026-04-28 01:53 | 6.15036 | -75.42474 | 6976 ft | 12 kts | 179° |
| 2026-04-28 01:53 | 6.14940 | -75.42472 | 6977 ft | 16 kts | 174° |
| 2026-04-28 01:53 | 6.14889 | -75.42417 | 6974 ft | 1 kts | 91° |
| 2026-04-28 01:54 | 6.14889 | -75.42401 | 6976 ft | 4 kts | 90° |
| 2026-04-28 01:54 | 6.14892 | -75.42353 | 6976 ft | 11 kts | 75° |
| 2026-04-28 01:54 | 6.14949 | -75.42303 | 6977 ft | 11 kts | 14° |
| 2026-04-28 01:54 | 6.14968 | -75.42301 | 6978 ft | 0 kts | 3° |
| 2026-04-28 01:55 | 6.14969 | -75.42301 | 6978 ft | 2 kts | 3° |
| 2026-04-28 01:55 | 6.15093 | -75.42301 | 6981 ft | 44 kts | 359° |
| 2026-04-28 01:55 | 6.15621 | -75.42305 | 6991 ft | 106 kts | 359° |
| 2026-04-28 01:55 | 6.16543 | -75.42313 | 7005 ft | 157 kts | 359° |
| 2026-04-28 01:56 | 6.17760 | -75.42323 | 7203 ft | 184 kts | 359° |
| 2026-04-28 01:56 | 6.19057 | -75.42334 | 7823 ft | 188 kts | 360° |
| 2026-04-28 01:56 | 6.19499 | -75.42337 | 8086 ft | 187 kts | 359° |
| 2026-04-28 01:56 | 6.20357 | -75.42351 | 8603 ft | 186 kts | 359° |